• Join FlightAware (Why Join?)
  • Login
  • US Flag 
02:52AM EDT


 

Airport Tracker/Info


-or-


 

Live Flight TrackerFlight Track Log ✈ AWE335 ✈ 10-May-2013 ✈ MMSD / SJD - KPHX

Flight Track Log - Related Links

Times and Time Zones

All times are in EDT time to prevent confusion due to time zone crossing. See the AWE335 flight status page for this flight to view local times or setup timezone preferences in your user account.

Time Position Orientation Groundspeed Altitude Reporting Facility
EDT Latitude Longitude Course Direction KTS MPH feet Rate Location/Type
04:18PM 23.4405 -110.0738 317° Northwest  Level FlightAware Approximate
04:19PM 23.5234 -110.1568 317° Northwest  Level FlightAware Approximate
04:20PM 23.6288 -110.1957 344° North  Level FlightAware Approximate
04:21PM 23.7372 -110.2286 344° North  Level FlightAware Approximate
04:22PM 23.8456 -110.2617 344° North  Level FlightAware Approximate
04:23PM 23.9547 -110.2918 349° North  Level FlightAware Approximate
04:24PM 24.0650 -110.3163 349° North  Level FlightAware Approximate
04:25PM 24.1745 -110.3435 351° North  Level FlightAware Approximate
04:26PM 24.2856 -110.3631 351° North  Level FlightAware Approximate
04:27PM 24.3967 -110.3828 351° North  Level FlightAware Approximate
04:28PM 24.5078 -110.4023 351° North  Level FlightAware Approximate
04:29PM 24.6189 -110.4220 351° North  Level FlightAware Approximate
04:30PM 24.7303 -110.4400 353° North  Level FlightAware Approximate
04:31PM 24.8419 -110.4560 353° North  Level FlightAware Approximate
04:32PM 24.9535 -110.4719 353° North  Level FlightAware Approximate
04:33PM 25.0651 -110.4876 353° North  Level FlightAware Approximate
04:34PM 25.1769 -110.5025 353° North  Level FlightAware Approximate
04:35PM 25.2886 -110.5177 350° North  Level FlightAware Approximate
04:36PM 25.3998 -110.5333 North  Level FlightAware Approximate
04:37PM 25.5109 -110.5535 351° North  Level FlightAware Approximate
04:38PM 25.6222 -110.5721 353° North  Level FlightAware Approximate
04:39PM 25.7338 -110.5876 353° North  Level FlightAware Approximate
04:40PM 25.8455 -110.6032 353° North  Level FlightAware Approximate
04:41PM 25.9571 -110.6189 353° North  Level FlightAware Approximate
04:42PM 26.0688 -110.6345 353° North  Level FlightAware Approximate
04:43PM 26.1805 -110.6502 353° North  Level FlightAware Approximate
04:44PM 26.2921 -110.6659 353° North  Level FlightAware Approximate
04:45PM 26.4038 -110.6817 353° North  Level FlightAware Approximate
04:46PM 26.5154 -110.6975 353° North  Level FlightAware Approximate
04:47PM 26.6269 -110.7149 352° North  Level FlightAware Approximate
04:48PM 26.7383 -110.7327 352° North  Level FlightAware Approximate
04:49PM 26.8497 -110.7506 352° North  Level FlightAware Approximate
04:50PM 26.9611 -110.7684 352° North  Level FlightAware Approximate
04:51PM 27.0725 -110.7863 352° North  Level FlightAware Approximate
04:52PM 27.1839 -110.8043 352° North  Level FlightAware Approximate
04:53PM 27.2953 -110.8223 352° North  Level FlightAware Approximate
04:54PM 27.4067 -110.8403 352° North  Level FlightAware Approximate
04:55PM 27.5183 -110.8571 353° North  Level FlightAware Approximate
04:56PM 27.6300 -110.8725 353° North  Level FlightAware Approximate
04:57PM 27.7417 -110.8879 353° North  Level FlightAware Approximate
04:58PM 27.8534 -110.9033 353° North  Level FlightAware Approximate
04:59PM 27.9652 -110.9182 355° North  Level FlightAware Approximate
05:00PM 28.0773 -110.9296 355° North  Level FlightAware Approximate
05:01PM 28.1894 -110.9411 355° North  Level FlightAware Approximate
05:02PM 28.3015 -110.9526 355° North  Level FlightAware Approximate
05:03PM 28.4135 -110.9641 355° North  Level FlightAware Approximate
05:04PM 28.5256 -110.9756 355° North  Level FlightAware Approximate
05:05PM 28.6377 -110.9872 355° North  Level FlightAware Approximate
05:06PM 28.7498 -110.9987 355° North  Level FlightAware Approximate
05:07PM 28.8619 -111.0103 355° North  Level FlightAware Approximate
05:08PM 28.9739 -111.0220 355° North  Level FlightAware Approximate
05:09PM 29.0860 -111.0332 North  Level FlightAware Approximate
05:10PM 29.1985 -111.0283 North  Level FlightAware Approximate
05:11PM 29.3110 -111.0233 North  Level FlightAware Approximate
05:12PM 29.4234 -111.0184 North  Level FlightAware Approximate
05:13PM 29.5359 -111.0134 North  Level FlightAware Approximate
05:14PM 29.6483 -111.0085 North  Level FlightAware Approximate
05:15PM 29.7608 -111.0035 North  Level FlightAware Approximate
05:16PM 29.8733 -110.9985 North  Level FlightAware Approximate
05:17PM 29.9857 -110.9935 North  Level FlightAware Approximate
05:18PM 30.0982 -110.9884 North  Level FlightAware Approximate
05:19PM 30.2106 -110.9834 North  Level FlightAware Approximate
05:20PM 30.3231 -110.9784 North  Level FlightAware Approximate
05:21PM 30.4356 -110.9733 North  Level FlightAware Approximate
05:22PM 30.5480 -110.9683 North  Level FlightAware Approximate
05:23PM 30.6605 -110.9647 North  Level FlightAware Approximate
05:23PM 30.6086 -110.9839 North 456 525 38,000  Level Albuquerque Center
05:24PM 30.7730 -110.9617 North  Level FlightAware Approximate
05:24PM 30.7369 -110.9781 North 459 528 38,000  Level Albuquerque Center
05:25PM 30.8855 -110.9587 North  Level FlightAware Approximate
05:25PM 30.8633 -110.9728 North 457 526 37,900  Level Albuquerque Center
05:26PM 30.9980 -110.9558 North  Level FlightAware Approximate
05:26PM 30.9894 -110.9667 North 455 524 37,900  Level Albuquerque Center
05:27PM 31.1105 -110.9528 North  Level FlightAware Approximate
05:27PM 31.1144 -110.9603 North 454 522 35,900  Level Albuquerque Center
05:28PM 31.2230 -110.9491 North  Level FlightAware Approximate
05:28PM 31.2394 -110.9544 North 452 520 33,500  Level Albuquerque Center
05:29PM 31.3897 -110.9444 North 452 520 31,900 -1,260 Descending Albuquerque Center
05:30PM 31.5075 -110.9400 North 434 499 30,900 -1,620 Descending Albuquerque Center
05:31PM 31.6283 -110.9356 North 420 483 28,600 -1,440 Descending Albuquerque Center
05:32PM 31.7317 -110.9331 North 407 468 28,000 -300 Descending Albuquerque Center
05:33PM 31.8439 -110.9286 North 405 466 28,000 -540 Level Albuquerque Center
05:34PM 31.9628 -110.9233 North 400 460 26,900 -1,020 Descending Albuquerque Center
05:35PM 32.0728 -110.9172 North 396 456 26,000 -1,200 Descending Albuquerque Center
05:36PM 32.2053 -110.9439 350° North 404 465 24,500 -1,440 Descending Albuquerque Center
05:37PM 32.3103 -110.9717 347° North 392 451 23,100 -1,380 Descending Albuquerque Center
05:38PM 32.4131 -111.0000 347° North 383 441 21,700 -1,380 Descending Albuquerque Center
05:40PM 32.5551 -111.0347 347° North  Level FlightAware Approximate
05:40PM 32.6139 -111.0553 347° North 372 428 19,000  Level Albuquerque Center
05:41PM 32.7117 -111.0842 346° North 365 420 17,700 -1,260 Descending Albuquerque Center
05:42PM 32.8083 -111.1103 347° North 360 414 16,400 -1,380 Descending Albuquerque Center
05:43PM 32.9011 -111.1819 327° Northwest 348 400 14,900 -1,380 Descending Albuquerque Center
05:44PM 32.9461 -111.2817 298° West 342 394 13,600 -1,260 Descending Albuquerque Center
05:45PM 32.9894 -111.3781 298° West 335 386 12,400 -1,140 Descending Albuquerque Center
05:46PM 33.0328 -111.4647 301° West 312 359 11,300 -1,080 Descending Albuquerque Center
05:47PM 33.0764 -111.5489 302° West 302 348 10,200 -1,440 Descending Albuquerque Center
05:49PM 33.1464 -111.5989 329° Northwest 296 341 8,400 -1,080 Descending Albuquerque Center
05:50PM 33.2186 -111.6378 336° Northwest 287 330 8,000 -720 Descending Albuquerque Center
05:51PM 33.3047 -111.6856 335° Northwest 284 327 7,000 -1,260 Descending Albuquerque Center
05:52PM 33.3753 -111.7250 335° Northwest 281 323 5,400 -1,620 Descending Albuquerque Center
05:53PM 33.4142 -111.7981 303° West 264 304 3,800 -1,200 Descending Albuquerque Center
05:54PM 33.4414 -111.8589 298° West 234 269 3,000 -780 Descending Albuquerque Center